KOFP

Hanover County Municipal Airport

Richmond/Ashland, Virginia, USA
METAR KOFP 200054Z AUTO 17003KT 10SM CLR 01/M09 A3009 RMK AO2 SLP191 T00061089
Observed Flight Rules
Jan-20 @ 00:54 UTC (25 minutes ago) Visual Flight Rules
Wind Visibility Clouds
170° at 3 knots 10 miles
  • Clear skies
Temperatures Readings
Current 1°C / 34°F
Dewpoint -9°C / 16°F
Humidity 48%
Altimeter 30.09" Hg
Pressure 1019.1 hPa
Elevation 62
METAR KOFP 200054Z AUTO 17003KT 10SM CLR 01/M09 A3009 RMK AO2 SLP191 T00061089
Observed Flight Rules
Jan-20 @ 00:54 UTC
(25 minutes ago)
VFR
Wind Visibility
170° at 3 knots 10 miles
Clouds
  • Clear skies
Temperature Dewpoint
1°C / 34°F -9°C / 16°F
Humidity Altimeter Pressure
48% 30.09" Hg 1019.1 hPa